Time;durP1;ratioP1;P1;durP2;ratioP2;P2;SDS_P1;SDS_P2;PMS_P1;PMS_P2;Temp;Humidity;BMP_temperature;BMP_pressure;BME280_temperature;BME280_humidity;BME280_pressure;Samples;Min_cycle;Max_cycle;Signal;HPM_P1;HPM_P2
2023/06/08 00:00:12;;;;;;;2.88;1.80;;;24.70;40.50;;;;;;5021890;28;20033;-66
2023/06/08 00:02:39;;;;;;;3.03;2.20;;;24.70;40.50;;;;;;5038683;28;20298;-60
2023/06/08 00:05:07;;;;;;;2.83;1.50;;;24.70;40.50;;;;;;5038712;28;20459;-64
2023/06/08 00:07:34;;;;;;;3.55;1.75;;;24.70;40.50;;;;;;5039700;28;20171;-62
2023/06/08 00:10:00;;;;;;;4.03;1.65;;;24.70;40.50;;;;;;5040678;28;20405;-63
2023/06/08 00:12:27;;;;;;;3.70;1.60;;;24.70;40.60;;;;;;5038185;28;20021;-60
2023/06/08 00:14:53;;;;;;;4.18;1.80;;;24.70;40.60;;;;;;5041330;28;20175;-64
2023/06/08 00:17:19;;;;;;;2.90;1.88;;;24.70;40.60;;;;;;5038574;28;20119;-61
2023/06/08 00:19:45;;;;;;;3.75;1.88;;;24.60;40.50;;;;;;5039097;28;20032;-62
2023/06/08 00:22:13;;;;;;;2.40;1.70;;;24.70;40.60;;;;;;5037159;28;20040;-61
2023/06/08 00:24:40;;;;;;;3.25;1.70;;;24.70;40.60;;;;;;5040342;28;20172;-62
2023/06/08 00:27:06;;;;;;;3.78;2.00;;;24.60;40.50;;;;;;5038729;28;20065;-63
2023/06/08 00:29:33;;;;;;;2.60;1.77;;;24.60;40.60;;;;;;5039061;28;20029;-62
2023/06/08 00:31:58;;;;;;;3.60;2.15;;;24.60;40.60;;;;;;5038674;28;20025;-61
2023/06/08 00:34:26;;;;;;;4.05;2.03;;;24.60;40.60;;;;;;5019312;28;20528;-62
2023/06/08 00:36:55;;;;;;;3.85;1.98;;;24.60;40.70;;;;;;5036474;28;20078;-61
2023/06/08 00:39:21;;;;;;;4.30;1.92;;;24.60;40.70;;;;;;5021748;28;20026;-62
2023/06/08 00:41:48;;;;;;;3.67;1.70;;;24.60;40.70;;;;;;5016164;28;20037;-61
2023/06/08 00:44:14;;;;;;;2.53;1.67;;;24.60;40.70;;;;;;5018950;28;20356;-62
2023/06/08 00:46:40;;;;;;;2.10;1.60;;;24.60;40.70;;;;;;5039877;28;20088;-62
2023/06/08 00:49:08;;;;;;;4.18;1.95;;;24.60;40.70;;;;;;5039694;28;20034;-61
2023/06/08 00:51:38;;;;;;;3.20;1.80;;;24.60;40.70;;;;;;5037355;28;20610;-61
2023/06/08 00:54:04;;;;;;;3.72;2.03;;;24.50;40.70;;;;;;5020769;28;20416;-62
2023/06/08 00:56:34;;;;;;;3.42;1.73;;;24.50;40.70;;;;;;5038206;28;20064;-60
2023/06/08 00:59:02;;;;;;;2.50;1.35;;;24.60;40.80;;;;;;5046581;28;20029;-63
2023/06/08 01:01:30;;;;;;;4.82;2.00;;;24.50;40.70;;;;;;5021803;28;20353;-63
2023/06/08 01:04:09;;;;;;;3.20;1.90;;;24.50;40.70;;;;;;5037463;28;20324;-63
2023/06/08 01:06:44;;;;;;;4.10;2.20;;;24.50;40.70;;;;;;5035715;28;20108;-62
2023/06/08 01:09:15;;;;;;;5.40;1.98;;;24.50;40.70;;;;;;5018211;28;20041;-60
2023/06/08 01:12:10;;;;;;;3.38;1.80;;;24.50;40.70;;;;;;5039908;28;20045;-61
2023/06/08 01:14:51;;;;;;;;;;;24.40;40.70;;;;;;5034555;28;20207;-61
2023/06/08 01:17:24;;;;;;;2.80;1.70;;;24.40;40.70;;;;;;5034860;28;19941;-62
2023/06/08 01:20:36;;;;;;;3.35;1.80;;;24.40;40.70;;;;;;5038829;28;20033;-63
2023/06/08 01:23:26;;;;;;;4.07;1.95;;;24.40;40.80;;;;;;5017043;28;20045;-62
2023/06/08 01:25:55;;;;;;;3.72;1.90;;;24.40;40.80;;;;;;5043936;28;20401;-60
2023/06/08 01:28:23;;;;;;;2.30;1.50;;;24.40;40.90;;;;;;5020092;28;20047;-61
2023/06/08 01:30:49;;;;;;;4.28;2.22;;;24.40;40.90;;;;;;5039985;28;20029;-63
2023/06/08 01:33:18;;;;;;;4.72;2.20;;;24.40;40.90;;;;;;5007626;28;20120;-60
2023/06/08 01:36:07;;;;;;;3.35;1.70;;;24.40;40.90;;;;;;5042945;28;20044;-62
2023/06/08 01:38:53;;;;;;;3.85;1.70;;;24.30;40.80;;;;;;5020560;28;20482;-60
2023/06/08 01:41:24;;;;;;;3.00;1.95;;;24.30;40.80;;;;;;5043643;28;20462;-61
2023/06/08 01:43:51;;;;;;;3.17;1.60;;;24.30;40.80;;;;;;5040596;28;20125;-63
2023/06/08 01:46:20;;;;;;;4.28;2.10;;;24.30;40.80;;;;;;5032954;28;20080;-64
2023/06/08 01:48:49;;;;;;;3.80;1.83;;;24.30;40.90;;;;;;5022077;28;20039;-62
2023/06/08 01:51:16;;;;;;;3.53;1.90;;;24.30;40.80;;;;;;5021811;28;20110;-62
2023/06/08 01:53:43;;;;;;;1.67;1.33;;;24.30;40.90;;;;;;5021262;28;20441;-61
2023/06/08 01:56:09;;;;;;;4.90;1.77;;;24.30;40.90;;;;;;5043747;28;20104;-64
2023/06/08 01:58:35;;;;;;;3.78;2.15;;;24.30;40.90;;;;;;5023176;28;20500;-64
2023/06/08 02:01:00;;;;;;;2.90;1.50;;;24.30;40.90;;;;;;5022441;28;21365;-62
2023/06/08 02:03:26;;;;;;;3.70;1.83;;;24.30;40.90;;;;;;5040557;28;20123;-61
2023/06/08 02:05:52;;;;;;;3.20;1.70;;;24.30;40.90;;;;;;5025193;28;20029;-61
2023/06/08 02:08:18;;;;;;;3.20;1.70;;;24.30;40.90;;;;;;5041486;28;20120;-62
2023/06/08 02:10:44;;;;;;;1.90;1.65;;;24.30;40.90;;;;;;5022354;28;20032;-62
2023/06/08 02:13:10;;;;;;;2.60;1.55;;;24.20;40.90;;;;;;5040006;28;20028;-63
2023/06/08 02:15:38;;;;;;;2.83;1.73;;;24.20;40.90;;;;;;5024078;28;20033;-62
2023/06/08 02:18:05;;;;;;;3.28;1.80;;;24.20;40.90;;;;;;5038172;28;20030;-64
2023/06/08 02:20:33;;;;;;;2.25;1.60;;;24.20;40.90;;;;;;5032587;28;20025;-63
2023/06/08 02:22:59;;;;;;;2.85;1.60;;;24.20;40.90;;;;;;5038760;28;20341;-62
2023/06/08 02:25:25;;;;;;;3.20;1.70;;;24.20;40.90;;;;;;5030228;28;20119;-61
2023/06/08 02:27:51;;;;;;;2.75;1.60;;;24.20;40.90;;;;;;5036673;28;20204;-63
2023/06/08 02:30:17;;;;;;;3.20;1.60;;;24.20;40.90;;;;;;5023623;28;20025;-63
2023/06/08 02:32:45;;;;;;;3.08;1.67;;;24.20;40.90;;;;;;5042383;28;20028;-63
2023/06/08 02:35:12;;;;;;;3.10;1.80;;;24.20;41.00;;;;;;5023126;28;20421;-61
2023/06/08 02:37:42;;;;;;;2.75;1.80;;;24.20;40.90;;;;;;5020633;28;20160;-62
2023/06/08 02:40:09;;;;;;;3.13;1.67;;;24.20;41.00;;;;;;5040620;28;20040;-61
2023/06/08 02:42:38;;;;;;;2.45;1.48;;;24.10;40.90;;;;;;5021036;28;20049;-61
2023/06/08 02:45:05;;;;;;;3.38;1.90;;;24.10;41.00;;;;;;5023282;28;20147;-63
2023/06/08 02:47:31;;;;;;;2.55;1.35;;;24.10;41.00;;;;;;5020931;28;20021;-62
2023/06/08 02:49:58;;;;;;;3.60;1.90;;;24.10;41.00;;;;;;5020511;28;20048;-62
2023/06/08 02:52:24;;;;;;;3.10;2.00;;;24.10;40.90;;;;;;5021359;28;20073;-61
2023/06/08 02:54:50;;;;;;;2.58;1.50;;;24.10;40.90;;;;;;5022871;28;20101;-62
2023/06/08 02:57:16;;;;;;;2.47;1.70;;;24.10;40.90;;;;;;5019695;28;20029;-62
2023/06/08 02:59:52;;;;;;;4.03;1.63;;;24.10;40.90;;;;;;5022329;28;20348;-64
2023/06/08 03:02:18;;;;;;;3.72;1.70;;;24.10;41.00;;;;;;5038598;28;20030;-62
2023/06/08 03:04:44;;;;;;;2.85;1.60;;;24.10;40.90;;;;;;5038986;28;20032;-62
2023/06/08 03:07:15;;;;;;;3.10;1.80;;;24.10;41.00;;;;;;5011912;28;20044;-61
2023/06/08 03:09:42;;;;;;;3.25;1.65;;;24.10;41.00;;;;;;5023453;28;20033;-63
2023/06/08 03:12:12;;;;;;;2.28;1.58;;;24.10;41.00;;;;;;5023774;28;20301;-63
2023/06/08 03:14:40;;;;;;;3.38;1.88;;;24.10;41.00;;;;;;5022571;28;20090;-61
2023/06/08 03:17:07;;;;;;;2.70;1.63;;;24.00;40.90;;;;;;5038914;28;20025;-63
2023/06/08 03:19:37;;;;;;;2.60;1.40;;;24.00;40.90;;;;;;5024400;28;20103;-62
2023/06/08 03:22:06;;;;;;;3.22;1.95;;;24.00;40.90;;;;;;5021873;28;20033;-59
2023/06/08 03:24:38;;;;;;;4.18;1.92;;;24.00;40.90;;;;;;5021023;28;20037;-61
2023/06/08 03:27:06;;;;;;;3.90;1.40;;;24.00;40.90;;;;;;5014904;28;20432;-62
2023/06/08 03:29:32;;;;;;;2.83;1.63;;;24.00;40.90;;;;;;5021291;28;20036;-61
2023/06/08 03:32:01;;;;;;;2.45;1.58;;;24.00;40.90;;;;;;5015877;28;20077;-61
2023/06/08 03:34:29;;;;;;;2.05;1.50;;;24.00;40.90;;;;;;5022214;28;20120;-61
2023/06/08 03:37:02;;;;;;;2.90;1.63;;;24.00;40.90;;;;;;5024893;28;20123;-62
2023/06/08 03:39:28;;;;;;;3.75;2.00;;;24.00;40.90;;;;;;5019952;28;20025;-60
2023/06/08 03:41:54;;;;;;;2.92;1.67;;;24.00;40.90;;;;;;5019914;28;20036;-63
2023/06/08 03:44:23;;;;;;;3.75;1.60;;;24.00;40.90;;;;;;5025522;28;20132;-63
2023/06/08 03:46:50;;;;;;;2.42;1.60;;;24.00;40.90;;;;;;5022771;28;20358;-61
2023/06/08 03:49:16;;;;;;;2.45;1.60;;;23.90;40.90;;;;;;5022267;28;20032;-64
2023/06/08 03:51:42;;;;;;;3.65;1.73;;;23.90;40.80;;;;;;5018033;28;20123;-60
2023/06/08 03:54:08;;;;;;;3.45;1.60;;;23.90;40.80;;;;;;5020337;28;20040;-61
2023/06/08 03:56:34;;;;;;;3.10;2.03;;;23.90;40.80;;;;;;5040049;28;20160;-63
2023/06/08 03:59:02;;;;;;;3.08;1.92;;;23.90;40.90;;;;;;5020935;28;20025;-64
2023/06/08 04:01:30;;;;;;;3.08;1.52;;;23.90;40.90;;;;;;5022095;28;20132;-61
2023/06/08 04:03:56;;;;;;;3.45;1.77;;;23.90;40.80;;;;;;5025083;28;20055;-59
2023/06/08 04:06:23;;;;;;;3.60;1.85;;;23.90;40.90;;;;;;5044637;28;20544;-62
2023/06/08 04:08:50;;;;;;;2.88;1.48;;;23.90;40.80;;;;;;5018591;28;20087;-64
2023/06/08 04:11:17;;;;;;;3.72;1.60;;;23.90;40.80;;;;;;5019964;28;20021;-62
2023/06/08 04:13:43;;;;;;;2.80;1.77;;;23.90;40.90;;;;;;5018045;28;20027;-61
2023/06/08 04:16:13;;;;;;;3.03;1.90;;;23.90;40.90;;;;;;5021404;28;20029;-62
2023/06/08 04:18:45;;;;;;;2.80;1.70;;;23.90;40.90;;;;;;5005396;28;20100;-61
2023/06/08 04:21:14;;;;;;;3.80;1.90;;;23.80;40.90;;;;;;5023317;28;20018;-63
2023/06/08 04:23:42;;;;;;;4.00;1.67;;;23.90;40.90;;;;;;5042878;28;20399;-62
2023/06/08 04:26:08;;;;;;;3.42;1.98;;;23.80;40.80;;;;;;5022566;28;20027;-63
2023/06/08 04:28:34;;;;;;;3.08;1.95;;;23.90;40.90;;;;;;5018481;28;20026;-63
2023/06/08 04:31:01;;;;;;;3.03;1.90;;;23.80;40.80;;;;;;5020699;28;20876;-62
2023/06/08 04:33:31;;;;;;;3.22;1.40;;;23.80;40.80;;;;;;5026145;28;20093;-60
2023/06/08 04:36:00;;;;;;;3.30;1.70;;;23.90;40.90;;;;;;5020120;28;20196;-62
2023/06/08 04:38:27;;;;;;;4.55;2.10;;;23.90;40.90;;;;;;5019950;28;20021;-62
2023/06/08 04:40:55;;;;;;;2.92;1.80;;;23.80;40.80;;;;;;5021867;28;20029;-63
2023/06/08 04:43:31;;;;;;;;;;;23.90;40.80;;;;;;5008629;28;20062;-64
2023/06/08 04:46:05;;;;;;;3.63;1.75;;;23.90;40.90;;;;;;5005128;28;19916;-61
2023/06/08 04:48:33;;;;;;;2.92;1.70;;;23.90;40.80;;;;;;5006798;28;20018;-62
2023/06/08 04:51:02;;;;;;;3.60;1.90;;;23.80;40.80;;;;;;5006474;28;20044;-62
2023/06/08 04:53:30;;;;;;;2.53;1.60;;;23.90;40.80;;;;;;5008373;28;20065;-63
2023/06/08 04:55:57;;;;;;;3.78;1.73;;;23.90;40.80;;;;;;5006291;28;20040;-60
2023/06/08 04:58:26;;;;;;;2.63;1.70;;;23.80;40.80;;;;;;5006925;28;20099;-63
2023/06/08 05:00:53;;;;;;;2.22;1.50;;;23.90;40.90;;;;;;5008963;28;20237;-63
2023/06/08 05:03:20;;;;;;;3.63;1.80;;;23.90;40.80;;;;;;5003910;28;20061;-63
2023/06/08 05:05:46;;;;;;;3.08;1.65;;;23.90;41.40;;;;;;5010844;28;20048;-62
2023/06/08 05:08:13;;;;;;;3.40;1.75;;;23.90;41.50;;;;;;5008462;28;20026;-61
2023/06/08 05:10:38;;;;;;;4.00;1.92;;;23.90;40.80;;;;;;5010351;28;20437;-61
2023/06/08 05:13:04;;;;;;;2.50;1.77;;;23.90;40.80;;;;;;5012801;28;20046;-62
2023/06/08 05:15:33;;;;;;;3.40;1.88;;;23.90;40.80;;;;;;5012618;28;20073;-60
2023/06/08 05:17:59;;;;;;;3.83;1.77;;;23.90;40.80;;;;;;5008818;28;20133;-61
2023/06/08 05:20:26;;;;;;;3.42;2.25;;;24.00;40.80;;;;;;5011823;28;20065;-62
2023/06/08 05:22:53;;;;;;;3.47;2.03;;;23.90;40.70;;;;;;5012542;28;20042;-62
2023/06/08 05:25:19;;;;;;;2.47;1.80;;;23.90;40.70;;;;;;5009760;28;20041;-62
2023/06/08 05:27:45;;;;;;;3.53;1.70;;;23.90;40.70;;;;;;5012156;28;20044;-65
2023/06/08 05:30:11;;;;;;;4.05;1.88;;;23.90;40.70;;;;;;5010576;28;20091;-60
2023/06/08 05:32:37;;;;;;;3.47;2.15;;;23.90;40.70;;;;;;5011843;28;20319;-63
2023/06/08 05:35:04;;;;;;;3.20;1.65;;;23.90;40.60;;;;;;5012462;28;20493;-61
2023/06/08 05:37:30;;;;;;;5.97;2.00;;;23.90;40.60;;;;;;5010394;28;20176;-62
2023/06/08 05:39:56;;;;;;;4.65;2.00;;;24.00;40.70;;;;;;5010634;28;20133;-61
2023/06/08 05:42:22;;;;;;;3.63;2.10;;;23.90;40.60;;;;;;5015850;28;20437;-62
2023/06/08 05:44:49;;;;;;;5.03;2.03;;;24.00;40.60;;;;;;5040299;28;20172;-63
2023/06/08 05:47:14;;;;;;;3.05;2.03;;;24.00;40.60;;;;;;5042438;28;20074;-61
2023/06/08 05:49:40;;;;;;;3.15;2.17;;;24.00;40.60;;;;;;5045452;28;20330;-60
2023/06/08 05:52:06;;;;;;;4.15;2.00;;;24.00;40.60;;;;;;5042575;28;20361;-64
2023/06/08 05:54:32;;;;;;;2.78;1.98;;;24.00;40.60;;;;;;5041223;28;20448;-61
2023/06/08 05:56:58;;;;;;;3.10;1.83;;;24.00;40.70;;;;;;5043916;28;20033;-62
2023/06/08 05:59:24;;;;;;;3.17;1.98;;;24.00;40.70;;;;;;5041998;28;20544;-62
2023/06/08 06:01:50;;;;;;;4.85;2.05;;;24.00;40.70;;;;;;5038484;28;20151;-63
2023/06/08 06:04:16;;;;;;;3.65;2.03;;;24.00;40.70;;;;;;5041145;28;20065;-62
2023/06/08 06:06:42;;;;;;;4.25;2.10;;;24.00;40.70;;;;;;5040877;28;20044;-64
2023/06/08 06:09:11;;;;;;;3.63;2.03;;;24.00;40.70;;;;;;5039653;28;20033;-63
2023/06/08 06:11:37;;;;;;;5.07;2.30;;;24.00;40.70;;;;;;5040333;28;20115;-64
2023/06/08 06:14:03;;;;;;;4.18;2.10;;;24.00;40.70;;;;;;5036485;28;20375;-63
2023/06/08 06:16:29;;;;;;;4.22;1.95;;;24.00;40.60;;;;;;5045118;28;20025;-63
2023/06/08 06:18:55;;;;;;;4.18;2.20;;;24.00;40.60;;;;;;5039313;28;20069;-61
2023/06/08 06:21:20;;;;;;;5.00;2.40;;;24.00;40.60;;;;;;5021627;28;20037;-62
2023/06/08 06:23:46;;;;;;;4.20;2.03;;;24.00;40.60;;;;;;5040245;28;20060;-64
2023/06/08 06:26:12;;;;;;;4.75;2.40;;;24.00;40.60;;;;;;5041017;28;20150;-63
2023/06/08 06:28:39;;;;;;;2.90;2.08;;;24.00;40.50;;;;;;5043723;28;20323;-65
2023/06/08 06:31:06;;;;;;;3.90;1.90;;;24.00;40.50;;;;;;5041532;28;20037;-61
2023/06/08 06:33:31;;;;;;;3.92;2.03;;;24.00;40.50;;;;;;5040794;28;20040;-62
2023/06/08 06:35:57;;;;;;;3.45;2.30;;;24.00;40.50;;;;;;5039257;28;20025;-63
2023/06/08 06:38:25;;;;;;;3.58;2.10;;;24.00;40.50;;;;;;5040660;28;20025;-63
2023/06/08 06:40:52;;;;;;;4.00;2.33;;;24.10;40.60;;;;;;5039867;28;20070;-65
2023/06/08 06:43:21;;;;;;;3.05;1.95;;;24.00;40.50;;;;;;5038721;28;20061;-60
2023/06/08 06:45:53;;;;;;;5.95;3.05;;;24.10;40.60;;;;;;5048287;28;20025;-63
2023/06/08 06:48:21;;;;;;;5.57;2.63;;;24.00;40.50;;;;;;5022028;28;20317;-64
2023/06/08 06:50:47;;;;;;;4.53;2.58;;;24.10;40.50;;;;;;5038982;28;20021;-66
2023/06/08 06:53:13;;;;;;;5.28;2.45;;;24.00;40.50;;;;;;5040522;28;20043;-62
2023/06/08 06:55:41;;;;;;;4.60;2.85;;;24.10;40.60;;;;;;5040141;28;20091;-62
2023/06/08 06:58:07;;;;;;;3.78;2.10;;;24.10;40.60;;;;;;5039217;28;20148;-64
2023/06/08 07:00:37;;;;;;;3.85;2.08;;;24.10;40.50;;;;;;5041300;28;20060;-65
2023/06/08 07:03:06;;;;;;;5.15;2.72;;;24.10;40.50;;;;;;5039905;28;20053;-61
2023/06/08 07:05:36;;;;;;;5.13;2.38;;;24.10;40.50;;;;;;5039036;28;20041;-62
2023/06/08 07:08:02;;;;;;;6.90;2.38;;;24.10;40.50;;;;;;5040161;28;20037;-62
2023/06/08 07:10:29;;;;;;;3.17;2.08;;;24.10;40.50;;;;;;5039090;28;20025;-63
2023/06/08 07:12:56;;;;;;;3.78;2.58;;;24.10;40.50;;;;;;5040987;28;20128;-61
2023/06/08 07:15:22;;;;;;;3.65;2.38;;;24.10;40.40;;;;;;5039462;28;20041;-60
2023/06/08 07:17:48;;;;;;;4.78;2.45;;;24.10;40.40;;;;;;5039284;28;20033;-62
2023/06/08 07:20:14;;;;;;;4.47;2.30;;;24.10;40.40;;;;;;5041776;28;20075;-60
2023/06/08 07:22:40;;;;;;;5.03;2.47;;;24.10;40.40;;;;;;5039171;28;20119;-62
2023/06/08 07:25:07;;;;;;;2.95;1.85;;;24.10;40.40;;;;;;5040784;28;20346;-61
2023/06/08 07:27:33;;;;;;;3.97;2.13;;;24.10;40.40;;;;;;5039666;28;20451;-62
2023/06/08 07:29:59;;;;;;;3.65;2.17;;;24.10;40.40;;;;;;5039931;28;20041;-63
2023/06/08 07:32:26;;;;;;;3.47;2.00;;;24.10;40.40;;;;;;5040347;28;20041;-61
2023/06/08 07:34:52;;;;;;;4.18;2.15;;;24.20;40.40;;;;;;5043064;28;20024;-63
2023/06/08 07:37:18;;;;;;;3.42;2.00;;;24.10;40.40;;;;;;5039336;28;20116;-62
2023/06/08 07:39:44;;;;;;;2.65;1.83;;;24.20;40.40;;;;;;5040501;28;20025;-63
2023/06/08 07:42:10;;;;;;;3.47;1.73;;;24.20;40.40;;;;;;5040738;28;20483;-61
2023/06/08 07:44:36;;;;;;;3.22;1.83;;;24.20;40.40;;;;;;5039799;28;20041;-62
2023/06/08 07:47:02;;;;;;;3.88;2.10;;;24.20;40.40;;;;;;5025651;28;20089;-63
2023/06/08 07:49:31;;;;;;;4.15;2.38;;;24.20;40.40;;;;;;5051282;28;20041;-62
2023/06/08 07:51:57;;;;;;;3.60;2.05;;;24.20;40.30;;;;;;5051096;28;20103;-62
2023/06/08 07:54:24;;;;;;;3.08;2.22;;;24.20;40.40;;;;;;5032614;28;20413;-63
2023/06/08 07:56:50;;;;;;;4.20;1.98;;;24.20;40.30;;;;;;5050558;28;20330;-63
2023/06/08 07:59:16;;;;;;;3.83;2.10;;;24.20;40.30;;;;;;5050283;28;20025;-63
2023/06/08 08:01:43;;;;;;;3.10;1.98;;;24.20;40.30;;;;;;5050638;28;20057;-61
2023/06/08 08:04:09;;;;;;;3.13;1.75;;;24.20;40.30;;;;;;5050418;28;20349;-61
2023/06/08 08:06:35;;;;;;;2.55;1.77;;;24.20;40.30;;;;;;5048705;28;20029;-62
2023/06/08 08:09:02;;;;;;;3.78;2.00;;;24.20;40.30;;;;;;5049284;28;20040;-61
2023/06/08 08:11:28;;;;;;;2.75;1.95;;;24.20;40.30;;;;;;5050513;28;20139;-63
2023/06/08 08:13:55;;;;;;;3.10;1.75;;;24.20;40.30;;;;;;5050432;28;20071;-62
2023/06/08 08:16:21;;;;;;;4.07;1.85;;;24.30;40.40;;;;;;5031145;28;20106;-63
2023/06/08 08:18:46;;;;;;;2.40;1.65;;;24.20;40.30;;;;;;5048929;28;20469;-61
2023/06/08 08:21:12;;;;;;;2.72;1.95;;;24.20;40.30;;;;;;5050453;28;20052;-64
2023/06/08 08:23:39;;;;;;;2.92;1.60;;;24.20;40.30;;;;;;5032468;28;20044;-62
2023/06/08 08:26:06;;;;;;;2.45;1.80;;;24.20;40.30;;;;;;5030382;28;20034;-64
2023/06/08 08:28:33;;;;;;;3.53;1.90;;;24.30;40.40;;;;;;5012650;28;20172;-64
2023/06/08 08:30:59;;;;;;;5.40;1.88;;;24.30;40.40;;;;;;5030248;28;20048;-62
2023/06/08 08:33:26;;;;;;;3.00;1.80;;;24.30;40.40;;;;;;5045616;28;20025;-61
2023/06/08 08:35:52;;;;;;;4.15;1.83;;;24.30;40.40;;;;;;5050504;28;20033;-64
2023/06/08 08:38:18;;;;;;;3.10;1.70;;;24.30;40.40;;;;;;5032152;28;20278;-62
2023/06/08 08:40:44;;;;;;;2.65;1.58;;;24.30;40.40;;;;;;5050395;28;20059;-63
2023/06/08 08:43:18;;;;;;;3.75;2.22;;;24.30;40.40;;;;;;5048852;28;20064;-61
2023/06/08 08:45:45;;;;;;;3.63;1.90;;;24.30;40.40;;;;;;5032374;28;20044;-62
2023/06/08 08:48:19;;;;;;;4.13;2.40;;;24.30;40.40;;;;;;5050179;28;20039;-64
2023/06/08 08:50:51;;;;;;;3.28;1.73;;;24.30;40.40;;;;;;5050142;28;20029;-64
2023/06/08 08:53:17;;;;;;;2.60;1.70;;;24.30;40.40;;;;;;5050320;28;20037;-61
2023/06/08 08:55:48;;;;;;;3.33;2.08;;;24.30;40.40;;;;;;5030104;28;20048;-64
2023/06/08 08:58:18;;;;;;;3.30;1.80;;;24.30;40.40;;;;;;5049696;28;20072;-61
2023/06/08 09:00:50;;;;;;;3.03;1.45;;;24.30;40.40;;;;;;5050060;28;20025;-63
2023/06/08 09:03:16;;;;;;;3.05;1.80;;;24.30;40.40;;;;;;5049867;28;20036;-61
2023/06/08 09:05:45;;;;;;;2.97;1.73;;;24.30;40.30;;;;;;5028657;28;20061;-61
2023/06/08 09:08:12;;;;;;;3.83;2.00;;;24.30;40.30;;;;;;5045171;28;20404;-64
2023/06/08 09:10:38;;;;;;;5.15;1.90;;;24.30;40.30;;;;;;5045531;28;20028;-64
2023/06/08 09:13:03;;;;;;;3.42;1.80;;;24.30;40.30;;;;;;5023548;28;20030;-64
2023/06/08 09:15:32;;;;;;;4.47;2.00;;;24.30;40.30;;;;;;5039776;28;20180;-64
2023/06/08 09:18:02;;;;;;;3.38;2.20;;;24.30;40.30;;;;;;5045891;28;20502;-61
2023/06/08 09:20:31;;;;;;;3.13;1.80;;;24.30;40.30;;;;;;5045812;28;20445;-63
2023/06/08 09:22:57;;;;;;;3.25;1.70;;;24.30;40.30;;;;;;5046486;28;20356;-63
2023/06/08 09:25:37;;;;;;;2.60;1.35;;;24.30;40.30;;;;;;5043986;28;20348;-64
2023/06/08 09:28:28;;;;;;;3.28;1.70;;;24.40;40.30;;;;;;5046510;28;20124;-63
2023/06/08 09:30:59;;;;;;;3.40;1.88;;;24.40;40.30;;;;;;5044235;28;20299;-65
2023/06/08 09:33:26;;;;;;;3.17;1.80;;;24.40;40.30;;;;;;5045849;28;20025;-63
2023/06/08 09:35:58;;;;;;;5.20;2.05;;;24.40;40.30;;;;;;5046794;28;20028;-61
2023/06/08 09:38:29;;;;;;;3.03;1.58;;;24.40;40.20;;;;;;5048475;28;20025;-64
2023/06/08 09:41:20;;;;;;;2.83;1.73;;;24.50;40.20;;;;;;5041951;28;20031;-63
2023/06/08 09:43:48;;;;;;;3.10;1.80;;;24.50;40.20;;;;;;5047145;28;20156;-63
2023/06/08 09:46:39;;;;;;;3.03;1.70;;;24.50;40.20;;;;;;5047149;28;20440;-63
2023/06/08 09:49:06;;;;;;;3.40;1.83;;;24.50;40.20;;;;;;5047527;28;20029;-65
2023/06/08 09:51:36;;;;;;;3.53;1.83;;;24.50;40.20;;;;;;5049918;28;20112;-63
2023/06/08 09:54:03;;;;;;;3.38;1.70;;;24.50;40.20;;;;;;5033204;28;20033;-61
2023/06/08 09:56:29;;;;;;;3.70;1.75;;;24.50;40.20;;;;;;5029843;28;20044;-60
2023/06/08 09:58:56;;;;;;;3.38;1.77;;;24.60;40.30;;;;;;5050422;28;20048;-61
2023/06/08 10:01:55;;;;;;;2.58;1.67;;;24.50;40.20;;;;;;5049118;28;20451;-63
2023/06/08 10:04:28;;;;;;;3.35;2.00;;;24.50;40.20;;;;;;5043875;28;20413;-63
2023/06/08 10:07:03;;;;;;;2.97;1.80;;;24.60;40.30;;;;;;5049350;28;20029;-62
2023/06/08 10:09:31;;;;;;;2.55;1.73;;;24.60;40.30;;;;;;5050896;28;20086;-63
2023/06/08 10:11:59;;;;;;;2.75;1.65;;;24.60;40.30;;;;;;5049558;28;20104;-61
2023/06/08 10:14:28;;;;;;;2.78;1.67;;;24.60;40.30;;;;;;5049842;28;20040;-63
2023/06/08 10:16:56;;;;;;;2.50;1.88;;;24.60;40.30;;;;;;5048687;28;20029;-64
2023/06/08 10:19:23;;;;;;;3.08;1.88;;;24.60;40.40;;;;;;5049193;28;20159;-63
2023/06/08 10:21:52;;;;;;;2.38;1.58;;;24.60;40.40;;;;;;5031449;28;20380;-62
2023/06/08 10:24:20;;;;;;;3.15;1.77;;;24.60;40.40;;;;;;5049584;28;20033;-63
2023/06/08 10:26:48;;;;;;;4.85;1.85;;;24.60;40.40;;;;;;5049067;28;20033;-63
2023/06/08 10:29:14;;;;;;;2.38;1.67;;;24.60;40.50;;;;;;5049426;28;20420;-60
2023/06/08 10:31:42;;;;;;;4.15;2.05;;;24.60;40.50;;;;;;5048815;28;20039;-61
2023/06/08 10:34:10;;;;;;;4.05;2.08;;;24.60;40.60;;;;;;5046117;28;20029;-62
2023/06/08 10:36:41;;;;;;;3.33;2.03;;;24.60;40.60;;;;;;5050788;28;20040;-62
2023/06/08 10:39:12;;;;;;;3.75;2.08;;;24.60;40.60;;;;;;5040049;28;20032;-61
2023/06/08 10:41:41;;;;;;;2.53;1.63;;;24.70;40.70;;;;;;5049632;28;20127;-63
2023/06/08 10:44:23;;;;;;;2.65;1.70;;;24.70;40.70;;;;;;5046732;28;20060;-62
2023/06/08 10:46:57;;;;;;;3.53;2.00;;;24.70;40.80;;;;;;5048688;28;20112;-61
2023/06/08 10:49:22;;;;;;;2.50;1.55;;;24.70;40.90;;;;;;5047617;28;20048;-61
2023/06/08 10:51:55;;;;;;;3.38;1.92;;;24.70;40.90;;;;;;5023904;28;20356;-63
2023/06/08 10:54:22;;;;;;;2.55;1.83;;;24.70;40.90;;;;;;5042507;28;20025;-63
2023/06/08 10:56:52;;;;;;;3.03;1.60;;;24.70;40.90;;;;;;5042672;28;20044;-61
2023/06/08 10:59:33;;;;;;;2.50;1.60;;;24.80;41.00;;;;;;5045513;28;20060;-63
2023/06/08 11:02:03;;;;;;;2.70;1.75;;;24.80;41.00;;;;;;5047990;28;20439;-63
2023/06/08 11:04:31;;;;;;;3.42;2.10;;;24.80;41.10;;;;;;5030166;28;20099;-61
2023/06/08 11:07:06;;;;;;;4.05;2.00;;;24.80;41.10;;;;;;5045049;28;20021;-63
2023/06/08 11:09:34;;;;;;;3.00;2.10;;;24.80;41.20;;;;;;5047441;28;20132;-62
2023/06/08 11:12:01;;;;;;;4.13;2.20;;;24.80;41.30;;;;;;5049607;28;20112;-63
2023/06/08 11:14:27;;;;;;;3.15;1.70;;;24.90;41.30;;;;;;5050000;28;20405;-63
2023/06/08 11:16:56;;;;;;;3.08;1.77;;;24.90;41.30;;;;;;5028442;28;20025;-61
2023/06/08 11:19:24;;;;;;;5.00;2.22;;;24.90;41.30;;;;;;5029141;28;20044;-63
2023/06/08 11:21:53;;;;;;;3.25;1.70;;;24.90;41.40;;;;;;5047676;28;20328;-61
2023/06/08 11:24:20;;;;;;;2.38;1.70;;;24.90;41.40;;;;;;5027862;28;20147;-63
2023/06/08 11:26:49;;;;;;;3.70;1.75;;;24.90;41.40;;;;;;5045206;28;20448;-63
2023/06/08 11:29:20;;;;;;;3.38;1.98;;;24.90;41.40;;;;;;5030910;28;20029;-63
2023/06/08 11:31:46;;;;;;;5.30;1.92;;;24.90;41.40;;;;;;5045196;28;20037;-63
2023/06/08 11:34:13;;;;;;;3.58;1.83;;;25.00;41.40;;;;;;5025038;28;20029;-61
2023/06/08 11:36:42;;;;;;;3.20;2.15;;;25.00;41.40;;;;;;5043943;28;20036;-63
2023/06/08 11:39:10;;;;;;;6.45;1.95;;;25.00;41.40;;;;;;5050373;28;20095;-63
2023/06/08 11:41:40;;;;;;;3.95;2.00;;;25.00;41.40;;;;;;5045931;28;20154;-63
2023/06/08 11:44:06;;;;;;;2.90;1.83;;;25.00;41.40;;;;;;5037612;28;20056;-65
2023/06/08 11:46:33;;;;;;;2.03;1.83;;;25.00;41.40;;;;;;5025464;28;20467;-64
2023/06/08 11:49:11;;;;;;;3.30;2.05;;;25.00;41.50;;;;;;5040334;28;20044;-65
2023/06/08 11:51:46;;;;;;;3.00;1.80;;;25.10;41.70;;;;;;5043365;28;20044;-62
2023/06/08 11:54:12;;;;;;;2.97;1.80;;;25.10;41.70;;;;;;5048592;28;20024;-63
2023/06/08 11:56:38;;;;;;;2.85;2.00;;;25.10;41.70;;;;;;5030978;28;20315;-63
2023/06/08 11:59:04;;;;;;;3.28;1.80;;;25.10;41.70;;;;;;5047947;28;20051;-60
2023/06/08 12:01:30;;;;;;;4.82;1.95;;;25.10;41.60;;;;;;5042911;28;20065;-63
2023/06/08 12:03:56;;;;;;;2.63;1.80;;;25.10;41.50;;;;;;5030238;28;20326;-62
2023/06/08 12:06:26;;;;;;;2.92;1.80;;;25.10;41.50;;;;;;5043108;28;20074;-61
2023/06/08 12:08:55;;;;;;;2.25;1.60;;;25.10;41.50;;;;;;5043831;28;20127;-63
2023/06/08 12:11:21;;;;;;;3.20;2.13;;;25.10;41.40;;;;;;5022220;28;20029;-60
2023/06/08 12:13:48;;;;;;;2.53;1.77;;;25.10;41.40;;;;;;5048208;28;20124;-62
2023/06/08 12:16:14;;;;;;;2.22;1.60;;;25.10;41.40;;;;;;5045756;28;20036;-61
2023/06/08 12:18:42;;;;;;;2.33;1.70;;;25.10;41.30;;;;;;5047512;28;20033;-61
2023/06/08 12:21:10;;;;;;;3.72;1.80;;;25.10;41.30;;;;;;5050260;28;20435;-59
2023/06/08 12:23:35;;;;;;;2.83;1.98;;;25.10;41.30;;;;;;5049932;28;20072;-61
2023/06/08 12:26:02;;;;;;;3.88;1.85;;;25.20;41.30;;;;;;5032226;28;20083;-61
2023/06/08 12:28:28;;;;;;;2.65;1.80;;;25.10;41.30;;;;;;5050267;28;20051;-62
2023/06/08 12:30:54;;;;;;;2.92;1.88;;;25.10;41.20;;;;;;5032232;28;20033;-60
2023/06/08 12:33:20;;;;;;;2.58;1.60;;;25.10;41.30;;;;;;5050166;28;20127;-61
2023/06/08 12:35:50;;;;;;;4.03;2.00;;;25.10;41.30;;;;;;5050321;28;20101;-60
2023/06/08 12:38:20;;;;;;;2.35;1.70;;;25.10;41.30;;;;;;5047160;28;20032;-60
2023/06/08 12:40:52;;;;;;;2.42;1.60;;;25.10;41.30;;;;;;5046716;28;20109;-60
2023/06/08 12:43:21;;;;;;;2.63;1.80;;;25.10;41.30;;;;;;5049851;28;20053;-62
2023/06/08 12:45:49;;;;;;;2.55;1.60;;;25.10;41.30;;;;;;5049805;28;20037;-62
2023/06/08 12:48:15;;;;;;;2.38;1.58;;;25.20;41.30;;;;;;5048106;28;20407;-60
2023/06/08 12:50:41;;;;;;;1.98;1.60;;;25.10;41.90;;;;;;5043452;28;20187;-61
2023/06/08 12:53:07;;;;;;;3.08;1.70;;;25.10;41.20;;;;;;5049851;28;20044;-63